Flight Track Log - Related Links

Times and Time Zones

All times are in EDT time to prevent confusion due to time zone crossing. See the SWA864 flight status page for this flight to view local times or setup timezone preferences in your user account.

Time Position Orientation Groundspeed Altitude Reporting Facility
EDT Latitude Longitude Course Direction KTS MPH feet Rate Location/Type
Sat 07:42:22 PM 34.1356 -118.4172 231° Southwest 222 255 5,000  Level Los Angeles Center
Sat 07:43:24 PM 34.1872 -118.4733 318° Northwest 264 304 7,300 2,758 Climbing Los Angeles Center
Sat 07:44:26 PM 34.2572 -118.5161 333° Northwest 282 325 10,700 2,927 Climbing Los Angeles Center
Sat 07:45:27 PM 34.3358 -118.5656 333° Northwest 314 361 13,300 2,683 Climbing Los Angeles Center
Sat 07:46:29 PM 34.4242 -118.6197 333° Northwest 352 405 16,200 2,855 Climbing Los Angeles Center
Sat 07:47:31 PM 34.5153 -118.6767 333° Northwest 370 426 19,200 3,000 Climbing Los Angeles Center
Sat 07:48:33 PM 34.6281 -118.7494 332° Northwest 383 441 22,400 2,468 Climbing Los Angeles Center
Sat 07:49:35 PM 34.7281 -118.8153 332° Northwest 408 470 24,300 2,146 Climbing Los Angeles Center
Sat 07:50:36 PM 34.8300 -118.8858 330° Northwest 421 484 26,800 2,098 Climbing Los Angeles Center
Sat 07:51:38 PM 34.9247 -118.9819 320° Northwest 422 486 28,600 1,597 Climbing Los Angeles Center
Sat 07:52:40 PM 35.0217 -119.0756 322° Northwest 443 510 30,100 1,548 Climbing Los Angeles Center
Sat 07:53:42 PM 35.1219 -119.1725 322° Northwest 459 528 31,800 1,902 Climbing Los Angeles Center
Sat 07:54:43 PM 35.2225 -119.2694 322° Northwest 461 531 34,000 2,049 Climbing Los Angeles Center
Sat 07:55:45 PM 35.3172 -119.3617 322° Northwest 441 507 36,000 968 Climbing Los Angeles Center
Sat 07:56:47 PM 35.4308 -119.4756 321° Northwest 442 509 36,000  Level Los Angeles Center
Sat 07:57:49 PM 35.5267 -119.5714 321° Northwest 446 513 36,000  Level Los Angeles Center
Sat 07:58:50 PM 35.6211 -119.6656 321° Northwest 442 509 36,000  Level Los Angeles Center
Sat 07:59:51 PM 35.7142 -119.7581 321° Northwest 448 516 36,000  Level Oakland Center
Sat 08:00:52 PM 35.8111 -119.8544 321° Northwest 453 521 36,000  Level Oakland Center
Sat 08:01:53 PM 35.9056 -119.9500 321° Northwest 447 514 36,000  Level Oakland Center
Sat 08:02:54 PM 36.0011 -120.0461 321° Northwest 447 514 36,000 -98 Level Oakland Center
Sat 08:03:55 PM 36.0967 -120.1458 320° Northwest 452 520 35,800 -689 Descending Oakland Center
Sat 08:04:56 PM 36.2083 -120.2564 321° Northwest 435 501 34,600 -1,426 Descending Oakland Center
Sat 08:05:57 PM 36.3008 -120.3506 321° Northwest 432 497 32,900 -1,967 Descending Oakland Center
Sat 08:06:58 PM 36.3947 -120.4492 320° Northwest 441 507 30,600 -1,574 Descending Oakland Center
Sat 08:07:59 PM 36.4872 -120.5411 321° Northwest 431 496 29,700 -836 Descending Oakland Center
Sat 08:09:00 PM 36.5825 -120.6392 320° Northwest 444 511 28,900 -1,230 Descending Oakland Center
Sat 08:10:01 PM 36.6761 -120.7389 320° Northwest 444 511 27,200 -1,967 Descending Oakland Center
Sat 08:11:02 PM 36.7647 -120.8292 321° Northwest 421 484 24,900 -2,213 Descending Oakland Center
Sat 08:12:03 PM 36.8444 -120.9225 317° Northwest 399 459 22,700 -2,164 Descending Oakland Center
Sat 08:13:04 PM 36.9222 -121.0142 317° Northwest 388 447 20,500 -2,066 Descending Oakland Center
Sat 08:14:05 PM 36.9972 -121.0992 318° Northwest 371 427 18,500 -2,066 Descending Oakland Center
Sat 08:15:06 PM 37.0739 -121.1889 317° Northwest 355 409 16,300 -2,164 Descending Oakland Center
Sat 08:16:07 PM 37.1517 -121.2806 317° Northwest 342 394 14,100 -2,016 Descending Oakland Center
Sat 08:17:08 PM 37.2194 -121.3567 318° Northwest 331 381 12,200 -1,854 Descending Oakland Center
Sat 08:18:10 PM 37.2839 -121.4328 317° Northwest 320 368 10,300 -1,220 Descending Oakland Center
Sat 08:19:11 PM 37.3458 -121.5039 318° Northwest 303 349 9,700 -1,440 Descending Oakland Center
Sat 08:19:50 PM 37.3833 -121.5500 316° Northwest 306 352 7,900 -2,000 Descending Northern Cal TRACON
Sat 08:20:50 PM 37.4500 -121.6167 322° Northwest 294 338 6,400 -950 Descending Northern Cal TRACON
Sat 08:21:50 PM 37.5167 -121.6833 322° Northwest 286 329 6,000 -200 Descending Northern Cal TRACON
Sat 08:22:50 PM 37.5667 -121.7500 313° West 257 296 6,000  Level Northern Cal TRACON
Sat 08:23:50 PM 37.6000 -121.8167 302° West 256 295 6,000 -200 Level Northern Cal TRACON
Sat 08:24:50 PM 37.5667 -121.9000 243° Southwest 242 278 5,600 -500 Descending Northern Cal TRACON
Sat 08:25:50 PM 37.5667 -121.9667 270° West 236 272 5,000 -1,000 Descending Northern Cal TRACON
Sat 08:26:50 PM 37.5833 -122.0500 284° West 215 247 3,600 -1,350 Descending Northern Cal TRACON
Sat 08:27:50 PM 37.6167 -122.1000 310° West 190 219 2,300 -1,100 Descending Northern Cal TRACON
Sat 08:28:50 PM 37.6500 -122.1500 310° West 171 197 1,400 -800 Descending Northern Cal TRACON
Sat 08:29:50 PM 37.6833 -122.1833 322° Northwest 126 145 700 -650 Descending Northern Cal TRACON
Sat 08:30:50 PM 37.7000 -122.2167 302° West 118 136 100 -600 Descending Northern Cal TRACON
Sat 08:33:00 PM 37.7167 -122.2167 270° West  Level FlightAware Approximate

Login

Don't have an account? Register now (free) for customized features, flight alerts, and more!